ESOK 250120Z AUTO 15002KT 7000 FEW014/// M01/M01 Q1005